sensor_id;sensor_type;location;lat;lon;timestamp;temperature;humidity
3818;DHT22;1924;48.078;11.516;2023-05-07T00:01:58;13.10;99.90
3818;DHT22;1924;48.078;11.516;2023-05-07T00:04:24;13.10;99.90
3818;DHT22;1924;48.078;11.516;2023-05-07T00:06:51;13.10;99.90
3818;DHT22;1924;48.078;11.516;2023-05-07T00:09:18;13.10;99.90
3818;DHT22;1924;48.078;11.516;2023-05-07T00:11:46;13.00;99.90
3818;DHT22;1924;48.078;11.516;2023-05-07T00:14:13;12.90;99.90
3818;DHT22;1924;48.078;11.516;2023-05-07T00:16:39;12.90;99.90
3818;DHT22;1924;48.078;11.516;2023-05-07T00:19:06;12.90;99.90
3818;DHT22;1924;48.078;11.516;2023-05-07T00:21:33;12.90;99.90
3818;DHT22;1924;48.078;11.516;2023-05-07T00:23:59;12.90;99.90
3818;DHT22;1924;48.078;11.516;2023-05-07T00:26:26;12.90;99.90
3818;DHT22;1924;48.078;11.516;2023-05-07T00:28:54;12.80;99.90
3818;DHT22;1924;48.078;11.516;2023-05-07T00:31:21;12.90;99.90
3818;DHT22;1924;48.078;11.516;2023-05-07T00:33:47;12.90;99.90
3818;DHT22;1924;48.078;11.516;2023-05-07T00:36:14;12.80;99.90
3818;DHT22;1924;48.078;11.516;2023-05-07T00:38:41;12.80;99.90
3818;DHT22;1924;48.078;11.516;2023-05-07T00:41:07;12.90;99.90
3818;DHT22;1924;48.078;11.516;2023-05-07T00:43:34;12.90;99.90
3818;DHT22;1924;48.078;11.516;2023-05-07T00:46:02;13.00;99.90
3818;DHT22;1924;48.078;11.516;2023-05-07T00:48:29;12.90;99.90
3818;DHT22;1924;48.078;11.516;2023-05-07T00:50:56;12.90;99.90
3818;DHT22;1924;48.078;11.516;2023-05-07T00:53:23;12.80;99.90
3818;DHT22;1924;48.078;11.516;2023-05-07T00:55:50;12.70;99.90
3818;DHT22;1924;48.078;11.516;2023-05-07T00:58:17;12.70;99.90
3818;DHT22;1924;48.078;11.516;2023-05-07T01:00:44;12.80;99.90
3818;DHT22;1924;48.078;11.516;2023-05-07T01:03:12;12.80;99.90
3818;DHT22;1924;48.078;11.516;2023-05-07T01:05:39;12.80;99.90
3818;DHT22;1924;48.078;11.516;2023-05-07T01:08:06;12.70;99.90
3818;DHT22;1924;48.078;11.516;2023-05-07T01:10:33;12.70;99.90
3818;DHT22;1924;48.078;11.516;2023-05-07T01:12:59;12.70;99.90
3818;DHT22;1924;48.078;11.516;2023-05-07T01:15:27;12.70;99.90
3818;DHT22;1924;48.078;11.516;2023-05-07T01:17:53;12.70;99.90
3818;DHT22;1924;48.078;11.516;2023-05-07T01:20:24;12.80;99.90
3818;DHT22;1924;48.078;11.516;2023-05-07T01:22:53;12.80;99.90
3818;DHT22;1924;48.078;11.516;2023-05-07T01:25:20;12.80;99.90
3818;DHT22;1924;48.078;11.516;2023-05-07T01:27:46;12.80;99.90
3818;DHT22;1924;48.078;11.516;2023-05-07T01:30:13;12.80;99.90
3818;DHT22;1924;48.078;11.516;2023-05-07T01:32:42;12.70;99.90
3818;DHT22;1924;48.078;11.516;2023-05-07T01:35:11;12.60;99.90
3818;DHT22;1924;48.078;11.516;2023-05-07T01:37:39;12.60;99.90
3818;DHT22;1924;48.078;11.516;2023-05-07T01:40:08;12.50;99.90
3818;DHT22;1924;48.078;11.516;2023-05-07T01:42:35;12.60;99.90
3818;DHT22;1924;48.078;11.516;2023-05-07T01:45:03;12.50;99.90
3818;DHT22;1924;48.078;11.516;2023-05-07T01:47:30;12.60;99.90
3818;DHT22;1924;48.078;11.516;2023-05-07T01:49:57;12.80;99.90
3818;DHT22;1924;48.078;11.516;2023-05-07T01:52:24;12.80;99.90
3818;DHT22;1924;48.078;11.516;2023-05-07T01:54:51;12.80;99.90
3818;DHT22;1924;48.078;11.516;2023-05-07T01:57:19;12.80;99.90
3818;DHT22;1924;48.078;11.516;2023-05-07T01:59:46;12.60;99.90
3818;DHT22;1924;48.078;11.516;2023-05-07T02:02:12;12.50;99.90
3818;DHT22;1924;48.078;11.516;2023-05-07T02:04:39;12.60;99.90
3818;DHT22;1924;48.078;11.516;2023-05-07T02:07:06;12.60;99.90
3818;DHT22;1924;48.078;11.516;2023-05-07T02:09:32;12.50;99.90
3818;DHT22;1924;48.078;11.516;2023-05-07T02:11:59;12.50;99.90
3818;DHT22;1924;48.078;11.516;2023-05-07T02:14:28;12.40;99.90
3818;DHT22;1924;48.078;11.516;2023-05-07T02:16:54;12.50;99.90
3818;DHT22;1924;48.078;11.516;2023-05-07T02:19:21;12.60;99.90
3818;DHT22;1924;48.078;11.516;2023-05-07T02:21:48;12.60;99.90
3818;DHT22;1924;48.078;11.516;2023-05-07T02:24:15;12.40;99.90
3818;DHT22;1924;48.078;11.516;2023-05-07T02:26:41;12.30;99.90
3818;DHT22;1924;48.078;11.516;2023-05-07T02:29:08;12.30;99.90
3818;DHT22;1924;48.078;11.516;2023-05-07T02:31:36;12.40;99.90
3818;DHT22;1924;48.078;11.516;2023-05-07T02:34:03;12.40;99.90
3818;DHT22;1924;48.078;11.516;2023-05-07T02:36:29;12.40;99.90
3818;DHT22;1924;48.078;11.516;2023-05-07T02:38:56;12.40;99.90
3818;DHT22;1924;48.078;11.516;2023-05-07T02:41:23;12.30;99.90
3818;DHT22;1924;48.078;11.516;2023-05-07T04:00:25;11.90;99.90
3818;DHT22;1924;48.078;11.516;2023-05-07T04:02:51;11.90;99.90
3818;DHT22;1924;48.078;11.516;2023-05-07T04:05:18;11.90;99.90
3818;DHT22;1924;48.078;11.516;2023-05-07T04:07:45;11.80;99.90
3818;DHT22;1924;48.078;11.516;2023-05-07T04:10:11;11.80;99.90
3818;DHT22;1924;48.078;11.516;2023-05-07T04:12:38;11.80;99.90
3818;DHT22;1924;48.078;11.516;2023-05-07T04:15:06;11.90;99.90
3818;DHT22;1924;48.078;11.516;2023-05-07T04:17:34;11.90;99.90
3818;DHT22;1924;48.078;11.516;2023-05-07T04:20:01;11.90;99.90
3818;DHT22;1924;48.078;11.516;2023-05-07T04:22:28;11.90;99.90
3818;DHT22;1924;48.078;11.516;2023-05-07T04:24:55;11.80;99.90
3818;DHT22;1924;48.078;11.516;2023-05-07T04:27:21;11.70;99.90
3818;DHT22;1924;48.078;11.516;2023-05-07T04:29:48;11.70;99.90
3818;DHT22;1924;48.078;11.516;2023-05-07T04:32:15;11.70;99.90
3818;DHT22;1924;48.078;11.516;2023-05-07T04:34:43;11.80;99.90
3818;DHT22;1924;48.078;11.516;2023-05-07T04:37:09;11.80;99.90
3818;DHT22;1924;48.078;11.516;2023-05-07T04:39:36;11.80;99.90
3818;DHT22;1924;48.078;11.516;2023-05-07T04:42:03;11.70;99.90
3818;DHT22;1924;48.078;11.516;2023-05-07T04:44:29;11.70;99.90
3818;DHT22;1924;48.078;11.516;2023-05-07T04:46:56;11.80;99.90
3818;DHT22;1924;48.078;11.516;2023-05-07T04:49:23;11.80;99.90
3818;DHT22;1924;48.078;11.516;2023-05-07T04:51:51;11.90;99.90
3818;DHT22;1924;48.078;11.516;2023-05-07T04:54:18;12.00;99.90
3818;DHT22;1924;48.078;11.516;2023-05-07T04:56:45;12.20;99.90
3818;DHT22;1924;48.078;11.516;2023-05-07T04:59:11;12.40;99.90
3818;DHT22;1924;48.078;11.516;2023-05-07T05:01:38;12.50;99.90
3818;DHT22;1924;48.078;11.516;2023-05-07T05:04:05;12.50;99.90
3818;DHT22;1924;48.078;11.516;2023-05-07T05:06:32;12.50;99.90
3818;DHT22;1924;48.078;11.516;2023-05-07T05:09:00;12.50;99.90
3818;DHT22;1924;48.078;11.516;2023-05-07T05:11:27;12.50;99.90
3818;DHT22;1924;48.078;11.516;2023-05-07T05:13:53;12.60;99.90
3818;DHT22;1924;48.078;11.516;2023-05-07T05:16:20;12.80;99.90
3818;DHT22;1924;48.078;11.516;2023-05-07T05:18:47;13.00;99.90
3818;DHT22;1924;48.078;11.516;2023-05-07T05:21:13;13.40;99.90
3818;DHT22;1924;48.078;11.516;2023-05-07T05:23:40;13.70;99.90
3818;DHT22;1924;48.078;11.516;2023-05-07T05:26:08;14.30;99.90
3818;DHT22;1924;48.078;11.516;2023-05-07T05:28:35;14.80;99.90
3818;DHT22;1924;48.078;11.516;2023-05-07T05:31:02;15.30;99.90
3818;DHT22;1924;48.078;11.516;2023-05-07T05:33:28;15.60;99.90
3818;DHT22;1924;48.078;11.516;2023-05-07T05:35:55;15.80;99.90
3818;DHT22;1924;48.078;11.516;2023-05-07T05:38:22;16.00;99.90
3818;DHT22;1924;48.078;11.516;2023-05-07T05:40:48;16.10;99.90
3818;DHT22;1924;48.078;11.516;2023-05-07T05:43:16;16.20;99.90
3818;DHT22;1924;48.078;11.516;2023-05-07T05:45:43;16.40;99.90
3818;DHT22;1924;48.078;11.516;2023-05-07T05:48:10;16.70;99.90
3818;DHT22;1924;48.078;11.516;2023-05-07T05:50:36;16.80;99.90
3818;DHT22;1924;48.078;11.516;2023-05-07T05:53:03;17.00;99.90
3818;DHT22;1924;48.078;11.516;2023-05-07T05:55:30;17.40;99.90
3818;DHT22;1924;48.078;11.516;2023-05-07T05:57:58;17.70;99.90
3818;DHT22;1924;48.078;11.516;2023-05-07T06:00:26;18.10;99.90
3818;DHT22;1924;48.078;11.516;2023-05-07T06:02:53;18.40;99.90
3818;DHT22;1924;48.078;11.516;2023-05-07T06:05:20;18.20;99.90
3818;DHT22;1924;48.078;11.516;2023-05-07T06:07:46;17.50;99.90
3818;DHT22;1924;48.078;11.516;2023-05-07T06:10:13;17.40;99.90
3818;DHT22;1924;48.078;11.516;2023-05-07T06:12:40;17.60;99.90
3818;DHT22;1924;48.078;11.516;2023-05-07T06:15:07;17.90;99.90
3818;DHT22;1924;48.078;11.516;2023-05-07T06:17:37;18.20;99.90
3818;DHT22;1924;48.078;11.516;2023-05-07T06:20:06;18.40;99.90
3818;DHT22;1924;48.078;11.516;2023-05-07T06:22:33;18.70;99.90
3818;DHT22;1924;48.078;11.516;2023-05-07T06:24:59;18.60;99.90
3818;DHT22;1924;48.078;11.516;2023-05-07T06:27:26;18.00;99.90
3818;DHT22;1924;48.078;11.516;2023-05-07T06:29:53;17.70;99.90
3818;DHT22;1924;48.078;11.516;2023-05-07T06:32:20;17.70;99.90
3818;DHT22;1924;48.078;11.516;2023-05-07T06:34:48;17.50;99.90
3818;DHT22;1924;48.078;11.516;2023-05-07T06:37:15;17.50;99.90
3818;DHT22;1924;48.078;11.516;2023-05-07T06:39:42;17.70;99.90
3818;DHT22;1924;48.078;11.516;2023-05-07T06:42:08;18.10;99.90
3818;DHT22;1924;48.078;11.516;2023-05-07T06:44:35;18.10;99.90
3818;DHT22;1924;48.078;11.516;2023-05-07T06:47:02;17.80;99.90
3818;DHT22;1924;48.078;11.516;2023-05-07T06:49:28;17.80;99.90
3818;DHT22;1924;48.078;11.516;2023-05-07T06:51:57;17.70;99.90
3818;DHT22;1924;48.078;11.516;2023-05-07T06:54:23;18.10;99.90
3818;DHT22;1924;48.078;11.516;2023-05-07T06:56:50;18.50;99.90
3818;DHT22;1924;48.078;11.516;2023-05-07T06:59:17;18.60;99.90
3818;DHT22;1924;48.078;11.516;2023-05-07T07:01:44;18.30;99.90
3818;DHT22;1924;48.078;11.516;2023-05-07T07:04:11;18.30;99.90
3818;DHT22;1924;48.078;11.516;2023-05-07T07:06:38;18.20;99.90
3818;DHT22;1924;48.078;11.516;2023-05-07T07:09:06;18.00;99.90
3818;DHT22;1924;48.078;11.516;2023-05-07T07:11:33;18.10;99.90
3818;DHT22;1924;48.078;11.516;2023-05-07T07:13:59;18.10;99.90
3818;DHT22;1924;48.078;11.516;2023-05-07T07:16:26;18.10;99.90
3818;DHT22;1924;48.078;11.516;2023-05-07T07:18:53;18.50;99.90
3818;DHT22;1924;48.078;11.516;2023-05-07T07:21:19;18.80;99.90
3818;DHT22;1924;48.078;11.516;2023-05-07T07:23:46;19.10;99.90
3818;DHT22;1924;48.078;11.516;2023-05-07T07:26:14;19.20;99.90
3818;DHT22;1924;48.078;11.516;2023-05-07T07:28:45;19.00;99.90
3818;DHT22;1924;48.078;11.516;2023-05-07T07:31:12;18.50;99.90
3818;DHT22;1924;48.078;11.516;2023-05-07T07:33:39;18.40;99.90
3818;DHT22;1924;48.078;11.516;2023-05-07T07:36:06;18.40;99.90
3818;DHT22;1924;48.078;11.516;2023-05-07T07:38:33;18.50;99.90
3818;DHT22;1924;48.078;11.516;2023-05-07T07:41:00;18.60;99.90
3818;DHT22;1924;48.078;11.516;2023-05-07T07:43:28;18.90;99.90
3818;DHT22;1924;48.078;11.516;2023-05-07T07:45:55;19.20;99.90
3818;DHT22;1924;48.078;11.516;2023-05-07T07:48:21;19.40;99.90
3818;DHT22;1924;48.078;11.516;2023-05-07T07:50:49;19.50;99.90
3818;DHT22;1924;48.078;11.516;2023-05-07T07:53:16;19.30;99.90
3818;DHT22;1924;48.078;11.516;2023-05-07T07:55:43;19.10;99.90
3818;DHT22;1924;48.078;11.516;2023-05-07T07:58:10;19.20;99.90
3818;DHT22;1924;48.078;11.516;2023-05-07T08:00:38;19.10;99.90
3818;DHT22;1924;48.078;11.516;2023-05-07T08:03:05;19.20;99.90
3818;DHT22;1924;48.078;11.516;2023-05-07T08:05:32;19.40;99.90
3818;DHT22;1924;48.078;11.516;2023-05-07T08:07:59;19.60;99.90
3818;DHT22;1924;48.078;11.516;2023-05-07T08:10:26;19.50;99.90
3818;DHT22;1924;48.078;11.516;2023-05-07T08:12:53;19.70;99.90
3818;DHT22;1924;48.078;11.516;2023-05-07T08:15:19;19.50;99.90
3818;DHT22;1924;48.078;11.516;2023-05-07T08:17:47;19.40;99.90
3818;DHT22;1924;48.078;11.516;2023-05-07T08:20:14;19.50;99.90
3818;DHT22;1924;48.078;11.516;2023-05-07T08:22:41;19.60;99.90
3818;DHT22;1924;48.078;11.516;2023-05-07T08:25:08;19.70;99.90
3818;DHT22;1924;48.078;11.516;2023-05-07T08:27:35;19.80;99.90
3818;DHT22;1924;48.078;11.516;2023-05-07T08:30:02;19.60;99.90
3818;DHT22;1924;48.078;11.516;2023-05-07T08:32:29;19.70;99.90
3818;DHT22;1924;48.078;11.516;2023-05-07T08:34:57;19.90;99.90
3818;DHT22;1924;48.078;11.516;2023-05-07T08:37:24;20.00;99.90
3818;DHT22;1924;48.078;11.516;2023-05-07T08:39:51;19.80;99.90
3818;DHT22;1924;48.078;11.516;2023-05-07T08:42:18;19.80;99.80
3818;DHT22;1924;48.078;11.516;2023-05-07T08:44:47;19.70;99.90
3818;DHT22;1924;48.078;11.516;2023-05-07T08:47:14;19.70;98.10
3818;DHT22;1924;48.078;11.516;2023-05-07T08:49:42;19.70;97.50
3818;DHT22;1924;48.078;11.516;2023-05-07T08:52:11;19.90;97.70
3818;DHT22;1924;48.078;11.516;2023-05-07T08:54:39;20.10;97.70
3818;DHT22;1924;48.078;11.516;2023-05-07T08:57:06;19.90;98.70
3818;DHT22;1924;48.078;11.516;2023-05-07T08:59:33;19.90;96.60
3818;DHT22;1924;48.078;11.516;2023-05-07T09:02:00;19.90;97.50
3818;DHT22;1924;48.078;11.516;2023-05-07T09:04:27;19.90;97.50
3818;DHT22;1924;48.078;11.516;2023-05-07T09:06:54;20.00;98.00
3818;DHT22;1924;48.078;11.516;2023-05-07T09:09:22;20.20;98.00
3818;DHT22;1924;48.078;11.516;2023-05-07T09:11:56;20.40;98.00
3818;DHT22;1924;48.078;11.516;2023-05-07T09:14:24;20.30;95.80
3818;DHT22;1924;48.078;11.516;2023-05-07T09:16:52;20.00;95.80
3818;DHT22;1924;48.078;11.516;2023-05-07T09:19:22;20.00;97.10
3818;DHT22;1924;48.078;11.516;2023-05-07T09:21:49;19.90;96.40
3818;DHT22;1924;48.078;11.516;2023-05-07T09:24:16;20.20;96.60
3818;DHT22;1924;48.078;11.516;2023-05-07T09:26:44;20.40;96.60
3818;DHT22;1924;48.078;11.516;2023-05-07T09:29:11;20.70;98.10
3818;DHT22;1924;48.078;11.516;2023-05-07T09:31:37;20.70;96.20
3818;DHT22;1924;48.078;11.516;2023-05-07T09:34:04;20.50;95.50
3818;DHT22;1924;48.078;11.516;2023-05-07T09:36:31;20.50;95.90
3818;DHT22;1924;48.078;11.516;2023-05-07T09:38:59;20.60;96.50
3818;DHT22;1924;48.078;11.516;2023-05-07T09:41:26;20.80;94.90
3818;DHT22;1924;48.078;11.516;2023-05-07T09:43:55;20.80;95.40
3818;DHT22;1924;48.078;11.516;2023-05-07T09:46:27;20.90;95.20
3818;DHT22;1924;48.078;11.516;2023-05-07T09:48:57;20.80;95.30
3818;DHT22;1924;48.078;11.516;2023-05-07T09:51:28;20.60;94.30
3818;DHT22;1924;48.078;11.516;2023-05-07T09:53:56;20.50;94.10
3818;DHT22;1924;48.078;11.516;2023-05-07T09:56:24;20.50;93.70
3818;DHT22;1924;48.078;11.516;2023-05-07T09:58:54;20.40;93.70
3818;DHT22;1924;48.078;11.516;2023-05-07T10:01:23;20.30;94.10
3818;DHT22;1924;48.078;11.516;2023-05-07T10:03:51;20.30;94.00
3818;DHT22;1924;48.078;11.516;2023-05-07T10:06:19;20.40;95.00
3818;DHT22;1924;48.078;11.516;2023-05-07T10:08:46;20.60;94.90
3818;DHT22;1924;48.078;11.516;2023-05-07T10:11:15;20.70;94.80
3818;DHT22;1924;48.078;11.516;2023-05-07T10:13:42;21.00;94.40
3818;DHT22;1924;48.078;11.516;2023-05-07T10:16:11;21.20;93.10
3818;DHT22;1924;48.078;11.516;2023-05-07T10:18:38;21.20;93.40
3818;DHT22;1924;48.078;11.516;2023-05-07T10:21:11;21.10;93.00
3818;DHT22;1924;48.078;11.516;2023-05-07T10:23:38;20.80;92.30
3818;DHT22;1924;48.078;11.516;2023-05-07T10:26:08;20.70;93.10
3818;DHT22;1924;48.078;11.516;2023-05-07T10:28:38;20.50;92.40
3818;DHT22;1924;48.078;11.516;2023-05-07T10:31:18;20.50;92.00
3818;DHT22;1924;48.078;11.516;2023-05-07T10:33:51;20.50;91.80
3818;DHT22;1924;48.078;11.516;2023-05-07T10:36:22;20.50;91.40
3818;DHT22;1924;48.078;11.516;2023-05-07T10:38:50;20.60;92.30
3818;DHT22;1924;48.078;11.516;2023-05-07T10:41:17;20.70;91.80
3818;DHT22;1924;48.078;11.516;2023-05-07T10:43:45;20.70;91.50
3818;DHT22;1924;48.078;11.516;2023-05-07T10:46:16;20.60;91.30
3818;DHT22;1924;48.078;11.516;2023-05-07T10:49:08;20.90;93.30
3818;DHT22;1924;48.078;11.516;2023-05-07T10:51:38;21.40;91.60
3818;DHT22;1924;48.078;11.516;2023-05-07T10:54:22;21.40;90.00
3818;DHT22;1924;48.078;11.516;2023-05-07T10:56:52;21.30;89.60
3818;DHT22;1924;48.078;11.516;2023-05-07T10:59:38;21.30;90.30
3818;DHT22;1924;48.078;11.516;2023-05-07T11:02:10;21.30;90.30
3818;DHT22;1924;48.078;11.516;2023-05-07T11:04:39;21.10;90.50
3818;DHT22;1924;48.078;11.516;2023-05-07T11:07:29;21.10;90.50
3818;DHT22;1924;48.078;11.516;2023-05-07T11:09:57;20.90;90.80
3818;DHT22;1924;48.078;11.516;2023-05-07T11:12:54;20.80;90.00
3818;DHT22;1924;48.078;11.516;2023-05-07T11:15:44;21.00;89.40
3818;DHT22;1924;48.078;11.516;2023-05-07T11:18:14;21.00;91.40
3818;DHT22;1924;48.078;11.516;2023-05-07T11:20:49;21.10;89.50
3818;DHT22;1924;48.078;11.516;2023-05-07T11:23:57;21.20;89.90
3818;DHT22;1924;48.078;11.516;2023-05-07T11:26:25;21.50;88.70
3818;DHT22;1924;48.078;11.516;2023-05-07T11:28:52;21.50;87.60
3818;DHT22;1924;48.078;11.516;2023-05-07T11:31:24;21.70;86.20
3818;DHT22;1924;48.078;11.516;2023-05-07T11:33:53;21.80;86.00
3818;DHT22;1924;48.078;11.516;2023-05-07T11:36:22;22.10;87.70
3818;DHT22;1924;48.078;11.516;2023-05-07T11:38:49;22.00;86.30
3818;DHT22;1924;48.078;11.516;2023-05-07T11:41:16;21.70;87.00
3818;DHT22;1924;48.078;11.516;2023-05-07T11:43:58;21.60;87.70
3818;DHT22;1924;48.078;11.516;2023-05-07T11:46:29;21.80;89.80
3818;DHT22;1924;48.078;11.516;2023-05-07T11:48:58;21.80;86.40
3818;DHT22;1924;48.078;11.516;2023-05-07T11:51:28;21.40;87.10
3818;DHT22;1924;48.078;11.516;2023-05-07T11:53:55;21.30;89.00
3818;DHT22;1924;48.078;11.516;2023-05-07T11:56:22;21.50;89.70
3818;DHT22;1924;48.078;11.516;2023-05-07T11:58:49;21.60;88.80
3818;DHT22;1924;48.078;11.516;2023-05-07T12:01:17;21.60;88.70
3818;DHT22;1924;48.078;11.516;2023-05-07T12:03:45;22.00;90.60
3818;DHT22;1924;48.078;11.516;2023-05-07T12:06:14;22.20;88.70
3818;DHT22;1924;48.078;11.516;2023-05-07T12:08:45;22.20;90.90
3818;DHT22;1924;48.078;11.516;2023-05-07T12:11:18;22.20;90.60
3818;DHT22;1924;48.078;11.516;2023-05-07T12:13:48;21.90;88.30
3818;DHT22;1924;48.078;11.516;2023-05-07T12:16:15;21.90;90.70
3818;DHT22;1924;48.078;11.516;2023-05-07T12:18:43;21.90;91.30
3818;DHT22;1924;48.078;11.516;2023-05-07T12:21:11;21.80;90.20
3818;DHT22;1924;48.078;11.516;2023-05-07T12:23:40;21.80;90.80
3818;DHT22;1924;48.078;11.516;2023-05-07T12:26:07;21.80;91.70
3818;DHT22;1924;48.078;11.516;2023-05-07T12:28:38;21.90;91.00
3818;DHT22;1924;48.078;11.516;2023-05-07T12:31:06;22.00;90.00
3818;DHT22;1924;48.078;11.516;2023-05-07T12:33:33;21.60;90.20
3818;DHT22;1924;48.078;11.516;2023-05-07T12:36:04;21.40;90.90
3818;DHT22;1924;48.078;11.516;2023-05-07T12:38:36;21.10;90.90
3818;DHT22;1924;48.078;11.516;2023-05-07T12:41:05;20.90;90.80
3818;DHT22;1924;48.078;11.516;2023-05-07T12:43:32;21.00;90.80
3818;DHT22;1924;48.078;11.516;2023-05-07T12:46:01;21.20;91.20
3818;DHT22;1924;48.078;11.516;2023-05-07T12:48:29;21.10;91.00
3818;DHT22;1924;48.078;11.516;2023-05-07T12:50:56;21.20;90.60
3818;DHT22;1924;48.078;11.516;2023-05-07T12:53:25;21.20;90.70
3818;DHT22;1924;48.078;11.516;2023-05-07T12:55:53;21.30;91.30
3818;DHT22;1924;48.078;11.516;2023-05-07T12:58:25;21.40;91.60
3818;DHT22;1924;48.078;11.516;2023-05-07T13:00:53;21.30;91.20
3818;DHT22;1924;48.078;11.516;2023-05-07T13:03:24;21.20;90.70
3818;DHT22;1924;48.078;11.516;2023-05-07T13:05:51;20.90;90.40
3818;DHT22;1924;48.078;11.516;2023-05-07T13:08:29;21.00;91.90
3818;DHT22;1924;48.078;11.516;2023-05-07T13:10:58;21.20;90.10
3818;DHT22;1924;48.078;11.516;2023-05-07T13:13:26;21.20;90.70
3818;DHT22;1924;48.078;11.516;2023-05-07T13:15:54;21.40;89.60
3818;DHT22;1924;48.078;11.516;2023-05-07T13:18:21;21.50;89.90
3818;DHT22;1924;48.078;11.516;2023-05-07T13:20:47;21.70;89.60
3818;DHT22;1924;48.078;11.516;2023-05-07T13:23:14;21.60;87.20
3818;DHT22;1924;48.078;11.516;2023-05-07T13:25:41;21.60;88.10
3818;DHT22;1924;48.078;11.516;2023-05-07T13:28:07;21.80;88.60
3818;DHT22;1924;48.078;11.516;2023-05-07T13:30:36;21.90;87.90
3818;DHT22;1924;48.078;11.516;2023-05-07T13:33:02;21.90;86.50
3818;DHT22;1924;48.078;11.516;2023-05-07T13:35:29;21.80;85.80
3818;DHT22;1924;48.078;11.516;2023-05-07T13:37:56;21.80;87.30
3818;DHT22;1924;48.078;11.516;2023-05-07T13:40:23;21.80;86.20
3818;DHT22;1924;48.078;11.516;2023-05-07T13:42:50;21.70;84.80
3818;DHT22;1924;48.078;11.516;2023-05-07T13:45:17;21.70;84.30
3818;DHT22;1924;48.078;11.516;2023-05-07T13:47:46;21.50;84.50
3818;DHT22;1924;48.078;11.516;2023-05-07T13:50:14;21.60;86.00
3818;DHT22;1924;48.078;11.516;2023-05-07T13:52:42;21.70;88.90
3818;DHT22;1924;48.078;11.516;2023-05-07T13:55:11;21.80;84.20
3818;DHT22;1924;48.078;11.516;2023-05-07T13:57:38;21.60;82.40
3818;DHT22;1924;48.078;11.516;2023-05-07T14:00:06;21.50;83.80
3818;DHT22;1924;48.078;11.516;2023-05-07T14:02:33;21.70;83.10
3818;DHT22;1924;48.078;11.516;2023-05-07T14:05:01;21.80;84.70
3818;DHT22;1924;48.078;11.516;2023-05-07T14:07:28;21.90;81.50
3818;DHT22;1924;48.078;11.516;2023-05-07T14:09:54;21.90;82.10
3818;DHT22;1924;48.078;11.516;2023-05-07T14:12:22;21.60;82.50
3818;DHT22;1924;48.078;11.516;2023-05-07T14:14:48;21.50;83.80
3818;DHT22;1924;48.078;11.516;2023-05-07T14:17:16;21.50;84.70
3818;DHT22;1924;48.078;11.516;2023-05-07T14:19:43;21.40;84.80
3818;DHT22;1924;48.078;11.516;2023-05-07T14:22:14;21.30;83.90
3818;DHT22;1924;48.078;11.516;2023-05-07T14:24:41;21.20;83.30
3818;DHT22;1924;48.078;11.516;2023-05-07T14:27:08;21.20;84.70
3818;DHT22;1924;48.078;11.516;2023-05-07T14:29:35;21.20;84.40
3818;DHT22;1924;48.078;11.516;2023-05-07T14:32:02;21.00;84.20
3818;DHT22;1924;48.078;11.516;2023-05-07T14:34:29;20.90;82.90
3818;DHT22;1924;48.078;11.516;2023-05-07T14:36:57;20.80;84.00
3818;DHT22;1924;48.078;11.516;2023-05-07T14:39:25;20.80;85.50
3818;DHT22;1924;48.078;11.516;2023-05-07T14:41:52;20.80;84.90
3818;DHT22;1924;48.078;11.516;2023-05-07T14:44:20;20.70;85.70
3818;DHT22;1924;48.078;11.516;2023-05-07T14:46:46;20.80;86.50
3818;DHT22;1924;48.078;11.516;2023-05-07T14:49:14;20.80;84.80
3818;DHT22;1924;48.078;11.516;2023-05-07T14:51:42;20.80;86.70
3818;DHT22;1924;48.078;11.516;2023-05-07T14:54:09;20.80;85.30
3818;DHT22;1924;48.078;11.516;2023-05-07T14:56:38;20.80;84.90
3818;DHT22;1924;48.078;11.516;2023-05-07T14:59:04;20.60;84.30
3818;DHT22;1924;48.078;11.516;2023-05-07T15:01:31;20.60;84.70
3818;DHT22;1924;48.078;11.516;2023-05-07T15:03:58;20.60;85.00
3818;DHT22;1924;48.078;11.516;2023-05-07T15:06:25;20.50;85.20
3818;DHT22;1924;48.078;11.516;2023-05-07T15:08:52;20.60;85.40
3818;DHT22;1924;48.078;11.516;2023-05-07T15:11:19;20.60;85.70
3818;DHT22;1924;48.078;11.516;2023-05-07T15:13:47;20.60;86.20
3818;DHT22;1924;48.078;11.516;2023-05-07T15:16:14;20.70;86.60
3818;DHT22;1924;48.078;11.516;2023-05-07T15:18:41;20.70;85.00
3818;DHT22;1924;48.078;11.516;2023-05-07T15:21:07;20.60;85.20
3818;DHT22;1924;48.078;11.516;2023-05-07T15:23:34;20.50;86.20
3818;DHT22;1924;48.078;11.516;2023-05-07T15:26:01;20.60;86.00
3818;DHT22;1924;48.078;11.516;2023-05-07T15:28:28;20.50;85.80
3818;DHT22;1924;48.078;11.516;2023-05-07T15:30:56;20.50;85.90
3818;DHT22;1924;48.078;11.516;2023-05-07T15:33:23;20.50;86.50
3818;DHT22;1924;48.078;11.516;2023-05-07T15:35:50;20.40;86.20
3818;DHT22;1924;48.078;11.516;2023-05-07T15:38:17;20.30;87.00
3818;DHT22;1924;48.078;11.516;2023-05-07T15:40:44;20.40;88.30
3818;DHT22;1924;48.078;11.516;2023-05-07T15:43:11;20.30;88.40
3818;DHT22;1924;48.078;11.516;2023-05-07T15:45:39;20.30;87.50
3818;DHT22;1924;48.078;11.516;2023-05-07T15:48:08;20.20;86.90
3818;DHT22;1924;48.078;11.516;2023-05-07T15:50:35;20.20;87.80
3818;DHT22;1924;48.078;11.516;2023-05-07T15:53:01;20.20;88.10
3818;DHT22;1924;48.078;11.516;2023-05-07T15:55:29;20.20;87.90
3818;DHT22;1924;48.078;11.516;2023-05-07T15:57:56;20.10;88.70
3818;DHT22;1924;48.078;11.516;2023-05-07T16:00:25;20.10;88.00
3818;DHT22;1924;48.078;11.516;2023-05-07T16:02:52;20.00;87.40
3818;DHT22;1924;48.078;11.516;2023-05-07T16:05:20;20.00;88.20
3818;DHT22;1924;48.078;11.516;2023-05-07T16:07:47;20.00;88.70
3818;DHT22;1924;48.078;11.516;2023-05-07T16:10:14;20.00;89.10
3818;DHT22;1924;48.078;11.516;2023-05-07T16:12:43;20.00;89.60
3818;DHT22;1924;48.078;11.516;2023-05-07T16:15:10;20.00;88.00
3818;DHT22;1924;48.078;11.516;2023-05-07T16:17:36;19.90;88.10
3818;DHT22;1924;48.078;11.516;2023-05-07T16:20:04;19.90;88.90
3818;DHT22;1924;48.078;11.516;2023-05-07T16:22:34;20.00;88.50
3818;DHT22;1924;48.078;11.516;2023-05-07T16:25:02;20.00;89.00
3818;DHT22;1924;48.078;11.516;2023-05-07T16:27:29;20.00;89.00
3818;DHT22;1924;48.078;11.516;2023-05-07T16:29:56;20.00;90.20
3818;DHT22;1924;48.078;11.516;2023-05-07T16:32:23;20.10;89.90
3818;DHT22;1924;48.078;11.516;2023-05-07T16:34:49;20.10;90.00
3818;DHT22;1924;48.078;11.516;2023-05-07T16:37:16;20.10;88.30
3818;DHT22;1924;48.078;11.516;2023-05-07T16:39:44;20.10;89.10
3818;DHT22;1924;48.078;11.516;2023-05-07T16:42:11;20.00;87.90
3818;DHT22;1924;48.078;11.516;2023-05-07T16:44:38;19.90;87.50
3818;DHT22;1924;48.078;11.516;2023-05-07T16:47:05;19.80;86.50
3818;DHT22;1924;48.078;11.516;2023-05-07T16:49:31;19.70;86.50
3818;DHT22;1924;48.078;11.516;2023-05-07T16:51:58;19.70;86.60
3818;DHT22;1924;48.078;11.516;2023-05-07T16:54:25;19.70;87.30
3818;DHT22;1924;48.078;11.516;2023-05-07T16:56:53;19.70;86.60
3818;DHT22;1924;48.078;11.516;2023-05-07T16:59:20;19.70;86.60
3818;DHT22;1924;48.078;11.516;2023-05-07T17:01:47;19.80;87.60
3818;DHT22;1924;48.078;11.516;2023-05-07T17:04:17;19.70;86.20
3818;DHT22;1924;48.078;11.516;2023-05-07T17:06:43;19.60;86.20